createdAt,value
2024-01-30T00:00:11.000Z,12.6
2024-01-30T00:03:39.000Z,10.5
2024-01-30T00:07:07.000Z,14.7
2024-01-30T00:10:35.000Z,11.1
2024-01-30T00:14:02.000Z,12.9
2024-01-30T00:17:31.000Z,13
2024-01-30T00:20:59.000Z,13.1
2024-01-30T00:23:42.000Z,13.4
2024-01-30T00:27:10.000Z,12.5
2024-01-30T00:30:38.000Z,11.3
2024-01-30T00:34:06.000Z,12.5
2024-01-30T00:37:35.000Z,10.9
2024-01-30T00:41:02.000Z,25.6
2024-01-30T00:44:30.000Z,26.1
2024-01-30T00:47:58.000Z,22.9
2024-01-30T00:51:26.000Z,28.1
2024-01-30T00:54:54.000Z,25.4
2024-01-30T00:58:23.000Z,25.3
2024-01-30T01:01:07.000Z,22.2
2024-01-30T01:04:35.000Z,25.4
2024-01-30T01:08:03.000Z,23.7
2024-01-30T01:11:31.000Z,21.7
2024-01-30T01:14:59.000Z,19.3
2024-01-30T01:18:27.000Z,15.7
2024-01-30T01:21:55.000Z,13.7
2024-01-30T01:25:23.000Z,12.5
2024-01-30T01:28:51.000Z,13
2024-01-30T01:32:19.000Z,11.5
2024-01-30T01:35:47.000Z,11
2024-01-30T01:38:31.000Z,11
2024-01-30T01:41:59.000Z,11
2024-01-30T01:45:27.000Z,11.2
2024-01-30T01:48:55.000Z,12.3
2024-01-30T01:52:24.000Z,10.9
2024-01-30T01:55:52.000Z,12.2
2024-01-30T01:59:20.000Z,10.7
2024-01-30T02:02:48.000Z,10.8
2024-01-30T02:06:16.000Z,18.9
2024-01-30T02:09:44.000Z,15.6
2024-01-30T02:13:12.000Z,20.9
2024-01-30T02:15:56.000Z,21.1
2024-01-30T02:19:24.000Z,20.1
2024-01-30T02:22:52.000Z,17.2
2024-01-30T02:26:20.000Z,18.5
2024-01-30T02:29:49.000Z,16.6
2024-01-30T02:33:17.000Z,13.5
2024-01-30T02:36:45.000Z,11
2024-01-30T02:40:13.000Z,17.6
2024-01-30T02:43:41.000Z,12
2024-01-30T02:47:10.000Z,11.6
2024-01-30T02:50:38.000Z,14.3
2024-01-30T02:53:22.000Z,18.8
2024-01-30T02:56:50.000Z,19.1
2024-01-30T03:00:18.000Z,17.6
2024-01-30T03:03:46.000Z,15.8
2024-01-30T03:07:14.000Z,18.9
2024-01-30T03:10:42.000Z,15.9
2024-01-30T03:14:10.000Z,14.9
2024-01-30T03:17:38.000Z,11.8
2024-01-30T03:21:07.000Z,12.6
2024-01-30T03:24:35.000Z,17.9
2024-01-30T03:28:03.000Z,15.7
2024-01-30T03:30:46.000Z,15.4
2024-01-30T03:34:14.000Z,12.6
2024-01-30T03:37:42.000Z,11.7
2024-01-30T03:41:10.000Z,14.3
2024-01-30T03:44:38.000Z,12.4
2024-01-30T03:48:06.000Z,12.4
2024-01-30T03:51:34.000Z,15.8
2024-01-30T03:55:03.000Z,10.6
2024-01-30T03:58:31.000Z,10.4
2024-01-30T04:04:08.000Z,13.1
2024-01-30T04:07:36.000Z,14.2
2024-01-30T04:10:13.000Z,12.9
2024-01-30T04:13:41.000Z,12.2
2024-01-30T04:17:09.000Z,11.2
2024-01-30T04:20:37.000Z,12
2024-01-30T04:24:05.000Z,11.3
2024-01-30T04:27:33.000Z,11.9
2024-01-30T04:31:01.000Z,12.5
2024-01-30T04:34:29.000Z,10.6
2024-01-30T04:37:57.000Z,9.9
2024-01-30T04:41:25.000Z,12
2024-01-30T04:44:53.000Z,12
2024-01-30T04:47:36.000Z,12
2024-01-30T04:51:04.000Z,12.7
2024-01-30T04:54:32.000Z,10.7
2024-01-30T04:58:00.000Z,10.3
2024-01-30T05:01:28.000Z,12.9
2024-01-30T05:04:57.000Z,12.4
2024-01-30T05:08:25.000Z,18.6
2024-01-30T05:11:57.000Z,15.7
2024-01-30T05:15:25.000Z,17.7
2024-01-30T05:18:53.000Z,16.2
2024-01-30T05:22:25.000Z,14.3
2024-01-30T05:25:08.000Z,12.4
2024-01-30T05:28:36.000Z,18.9
2024-01-30T05:32:04.000Z,21.2
2024-01-30T05:35:32.000Z,20.3
2024-01-30T05:39:00.000Z,24.1
2024-01-30T05:42:31.000Z,18.3
2024-01-30T05:45:59.000Z,27.1
2024-01-30T05:49:27.000Z,23
2024-01-30T05:52:55.000Z,15.5
2024-01-30T05:56:23.000Z,26.6
2024-01-30T05:59:51.000Z,21.6
2024-01-30T06:02:34.000Z,19.1
2024-01-30T06:06:03.000Z,38.4
2024-01-30T06:09:35.000Z,23.9
2024-01-30T06:13:03.000Z,23.3
2024-01-30T06:16:31.000Z,22.4
2024-01-30T06:19:58.000Z,20.4
2024-01-30T06:23:27.000Z,26.5
2024-01-30T06:26:55.000Z,25.2
2024-01-30T06:30:23.000Z,20.7
2024-01-30T06:33:51.000Z,21.6
2024-01-30T06:37:19.000Z,24.3
2024-01-30T06:40:03.000Z,24.9
2024-01-30T06:43:30.000Z,25.1
2024-01-30T06:46:59.000Z,23
2024-01-30T06:50:27.000Z,20.9
2024-01-30T06:53:56.000Z,20.6
2024-01-30T06:57:24.000Z,22.6
2024-01-30T07:00:52.000Z,20.5
2024-01-30T07:04:21.000Z,22.8
2024-01-30T07:07:50.000Z,20.1
2024-01-30T07:11:18.000Z,21
2024-01-30T07:14:46.000Z,18.4
2024-01-30T07:17:29.000Z,18.1
2024-01-30T07:20:57.000Z,21
2024-01-30T07:24:26.000Z,26.1
2024-01-30T07:27:54.000Z,19.4
2024-01-30T07:31:22.000Z,24.4
2024-01-30T07:34:54.000Z,26.8
2024-01-30T07:38:31.000Z,22.1
2024-01-30T07:41:59.000Z,30.5
2024-01-30T07:45:30.000Z,20.8
2024-01-30T07:48:58.000Z,25
2024-01-30T07:52:26.000Z,22.5
2024-01-30T07:55:10.000Z,22
2024-01-30T07:58:38.000Z,25.5
2024-01-30T08:02:06.000Z,21.9
2024-01-30T08:05:34.000Z,21.2
2024-01-30T08:09:03.000Z,21.7
2024-01-30T08:12:31.000Z,26.9
2024-01-30T08:15:59.000Z,25.3
2024-01-30T08:19:27.000Z,27.1
2024-01-30T08:22:56.000Z,23.3
2024-01-30T08:26:26.000Z,22.1
2024-01-30T08:29:59.000Z,22.8
2024-01-30T08:32:45.000Z,25.5
2024-01-30T08:36:18.000Z,25.1
2024-01-30T08:39:50.000Z,24.8
2024-01-30T08:43:23.000Z,25.9
2024-01-30T08:46:56.000Z,26.6
2024-01-30T08:50:28.000Z,28.1
2024-01-30T08:54:02.000Z,27.1
2024-01-30T08:57:35.000Z,27.2
2024-01-30T09:01:08.000Z,29.5
2024-01-30T09:04:42.000Z,27
2024-01-30T09:08:15.000Z,26.9
2024-01-30T09:11:00.000Z,29.4
2024-01-30T09:14:34.000Z,30.7
2024-01-30T09:18:06.000Z,27.1
2024-01-30T09:21:39.000Z,27.8
2024-01-30T09:25:12.000Z,23.4
2024-01-30T09:28:45.000Z,25.8
2024-01-30T09:32:18.000Z,22.8
2024-01-30T09:35:50.000Z,22
2024-01-30T09:39:27.000Z,22.7
2024-01-30T09:43:00.000Z,19.2
2024-01-30T09:46:33.000Z,18.8
2024-01-30T09:49:18.000Z,18.4
2024-01-30T09:52:51.000Z,21.8
2024-01-30T09:56:23.000Z,17.6
2024-01-30T09:59:56.000Z,19.3
2024-01-30T10:03:29.000Z,27.2
2024-01-30T10:07:02.000Z,22.9
2024-01-30T10:10:35.000Z,25.9
2024-01-30T10:14:08.000Z,24.4
2024-01-30T10:17:41.000Z,23.3
2024-01-30T10:21:13.000Z,18.2
2024-01-30T10:24:46.000Z,19.1
2024-01-30T10:27:31.000Z,20.4
2024-01-30T10:31:04.000Z,18.3
2024-01-30T10:34:37.000Z,20.5
2024-01-30T10:38:10.000Z,21.7
2024-01-30T10:41:43.000Z,21
2024-01-30T10:45:16.000Z,21.4
2024-01-30T10:48:49.000Z,26.4
2024-01-30T10:52:23.000Z,29.4
2024-01-30T10:55:56.000Z,32.4
2024-01-30T10:59:29.000Z,27
2024-01-30T11:03:02.000Z,26.7
2024-01-30T11:05:47.000Z,23.6
2024-01-30T11:09:20.000Z,20.4
2024-01-30T11:12:54.000Z,19.7
2024-01-30T11:16:26.000Z,18.2
2024-01-30T11:20:00.000Z,18
2024-01-30T11:23:33.000Z,17.3
2024-01-30T11:27:06.000Z,19.3
2024-01-30T11:30:39.000Z,18
2024-01-30T11:34:11.000Z,14.6
2024-01-30T11:37:45.000Z,14.2
2024-01-30T11:41:18.000Z,9.7
2024-01-30T11:44:03.000Z,17.1
2024-01-30T11:47:36.000Z,13.6
2024-01-30T11:51:11.000Z,15.8
2024-01-30T11:54:45.000Z,14.2
2024-01-30T11:58:18.000Z,15.5
2024-01-30T12:01:51.000Z,14
2024-01-30T12:05:24.000Z,16.9
2024-01-30T12:08:57.000Z,16.5
2024-01-30T12:12:30.000Z,16.3
2024-01-30T12:16:03.000Z,14.3
2024-01-30T12:19:36.000Z,16.1
2024-01-30T12:22:21.000Z,10.3
2024-01-30T12:25:54.000Z,13.9
2024-01-30T12:29:27.000Z,13.3
2024-01-30T12:33:05.000Z,15.8
2024-01-30T12:36:54.000Z,15.5
2024-01-30T12:40:27.000Z,13.6
2024-01-30T12:44:01.000Z,14.4
2024-01-30T12:47:34.000Z,14.4
2024-01-30T12:51:07.000Z,14
2024-01-30T12:54:40.000Z,12.8
2024-01-30T12:58:13.000Z,14.1
2024-01-30T13:00:58.000Z,13.1
2024-01-30T13:04:33.000Z,13.3
2024-01-30T13:08:06.000Z,13.8
2024-01-30T13:11:38.000Z,14.5
2024-01-30T13:15:20.000Z,16.8
2024-01-30T13:18:53.000Z,16
2024-01-30T13:22:26.000Z,13.1
2024-01-30T13:25:58.000Z,12.3
2024-01-30T13:29:31.000Z,15.8
2024-01-30T13:33:04.000Z,14.9
2024-01-30T13:36:37.000Z,15.3
2024-01-30T13:42:57.000Z,16.1
2024-01-30T13:46:30.000Z,17.4
2024-01-30T13:50:02.000Z,14.5
2024-01-30T13:53:36.000Z,16.9
2024-01-30T13:57:09.000Z,14.6
2024-01-30T14:00:42.000Z,13
2024-01-30T14:04:14.000Z,13.8
2024-01-30T14:07:48.000Z,13.7
2024-01-30T14:11:20.000Z,22.6
2024-01-30T14:14:53.000Z,24.3
2024-01-30T14:17:39.000Z,14.9
2024-01-30T14:21:12.000Z,16.4
2024-01-30T14:24:45.000Z,18.5
2024-01-30T14:28:18.000Z,19.5
2024-01-30T14:31:50.000Z,27.2
2024-01-30T14:35:23.000Z,18.8
2024-01-30T14:38:56.000Z,14.8
2024-01-30T14:42:29.000Z,15
2024-01-30T14:46:02.000Z,14.6
2024-01-30T14:49:35.000Z,15.4
2024-01-30T14:53:08.000Z,14.9
2024-01-30T14:55:53.000Z,12.6
2024-01-30T14:59:27.000Z,14.5
2024-01-30T15:03:00.000Z,13.5
2024-01-30T15:06:33.000Z,12.7
2024-01-30T15:10:06.000Z,14.1
2024-01-30T15:13:39.000Z,13.1
2024-01-30T15:17:12.000Z,15
2024-01-30T15:20:45.000Z,15.7
2024-01-30T15:24:18.000Z,18.4
2024-01-30T15:27:51.000Z,13.5
2024-01-30T15:31:24.000Z,12.7
2024-01-30T15:34:09.000Z,14.2
2024-01-30T15:37:42.000Z,14.7
2024-01-30T15:41:15.000Z,19.7
2024-01-30T15:44:47.000Z,22
2024-01-30T15:48:20.000Z,17.7
2024-01-30T15:51:53.000Z,20.2
2024-01-30T15:55:26.000Z,25.1
2024-01-30T15:58:59.000Z,18.5
2024-01-30T16:02:32.000Z,17.6
2024-01-30T16:06:05.000Z,18.4
2024-01-30T16:09:38.000Z,16.5
2024-01-30T16:12:23.000Z,18.6
2024-01-30T16:15:56.000Z,19.8
2024-01-30T16:19:29.000Z,20.4
2024-01-30T16:23:02.000Z,18.4
2024-01-30T16:26:36.000Z,17.9
2024-01-30T16:30:08.000Z,17.7
2024-01-30T16:33:41.000Z,18
2024-01-30T16:37:14.000Z,15.8
2024-01-30T16:40:46.000Z,14.3
2024-01-30T16:44:19.000Z,16.1
2024-01-30T16:47:52.000Z,14.3
2024-01-30T16:50:37.000Z,17.1
2024-01-30T16:54:10.000Z,17.2
2024-01-30T16:57:43.000Z,18.3
2024-01-30T17:01:16.000Z,17.1
2024-01-30T17:04:49.000Z,17.8
2024-01-30T17:08:29.000Z,14.3
2024-01-30T17:12:02.000Z,17.2
2024-01-30T17:15:35.000Z,15.1
2024-01-30T17:19:14.000Z,16.7
2024-01-30T17:22:47.000Z,16.4
2024-01-30T17:26:25.000Z,18.9
2024-01-30T17:29:11.000Z,16.2
2024-01-30T17:32:44.000Z,18.1
2024-01-30T17:36:18.000Z,15.8
2024-01-30T17:39:51.000Z,17.5
2024-01-30T17:43:23.000Z,20.2
2024-01-30T17:46:56.000Z,16.4
2024-01-30T17:50:29.000Z,20.4
2024-01-30T17:54:02.000Z,16.6
2024-01-30T17:57:35.000Z,15.9
2024-01-30T18:01:08.000Z,17.8
2024-01-30T18:04:40.000Z,17.2
2024-01-30T18:07:26.000Z,19.4
2024-01-30T18:10:59.000Z,18.7
2024-01-30T18:14:31.000Z,17.8
2024-01-30T18:18:04.000Z,19.7
2024-01-30T18:21:37.000Z,20.1
2024-01-30T18:25:10.000Z,18.1
2024-01-30T18:28:44.000Z,19.9
2024-01-30T18:32:17.000Z,17.6
2024-01-30T18:35:50.000Z,19.3
2024-01-30T18:39:23.000Z,20.2
2024-01-30T18:42:56.000Z,23.7
2024-01-30T18:45:41.000Z,19
2024-01-30T18:49:14.000Z,19.6
2024-01-30T18:52:47.000Z,19.5
2024-01-30T18:56:21.000Z,23.5
2024-01-30T18:59:54.000Z,19.6
2024-01-30T19:03:27.000Z,23.2
2024-01-30T19:07:00.000Z,19.4
2024-01-30T19:10:33.000Z,23.7
2024-01-30T19:14:10.000Z,24.4
2024-01-30T19:17:43.000Z,27.5
2024-01-30T19:21:16.000Z,23.9
2024-01-30T19:24:01.000Z,27.3
2024-01-30T19:27:39.000Z,30.2
2024-01-30T19:31:12.000Z,24.6
2024-01-30T19:34:46.000Z,28.1
2024-01-30T19:38:19.000Z,25.2
2024-01-30T19:41:51.000Z,27.5
2024-01-30T19:45:24.000Z,25.9
2024-01-30T19:48:57.000Z,26.3
2024-01-30T19:52:30.000Z,26.5
2024-01-30T19:56:04.000Z,27.2
2024-01-30T19:59:36.000Z,27.2
2024-01-30T20:02:22.000Z,24
2024-01-30T20:05:55.000Z,26.6
2024-01-30T20:09:28.000Z,28.6
2024-01-30T20:13:01.000Z,38.1
2024-01-30T20:16:33.000Z,29.5
2024-01-30T20:20:06.000Z,31.3
2024-01-30T20:23:39.000Z,47.2
2024-01-30T20:30:43.000Z,34.8
2024-01-30T20:34:16.000Z,30.7
2024-01-30T20:37:49.000Z,29.4
2024-01-30T20:41:22.000Z,27.9
2024-01-30T20:44:55.000Z,29.6
2024-01-30T20:48:28.000Z,31.5
2024-01-30T20:52:01.000Z,29.4
2024-01-30T20:55:33.000Z,26.5
2024-01-30T20:59:06.000Z,30.1
2024-01-30T21:02:39.000Z,34.3
2024-01-30T21:06:12.000Z,31
2024-01-30T21:08:58.000Z,29.5
2024-01-30T21:12:31.000Z,38.5
2024-01-30T21:16:04.000Z,31.8
2024-01-30T21:19:36.000Z,28.4
2024-01-30T21:23:09.000Z,29
2024-01-30T21:26:42.000Z,29.8
2024-01-30T21:30:14.000Z,27.6
2024-01-30T21:33:47.000Z,28.8
2024-01-30T21:37:20.000Z,28.2
2024-01-30T21:40:53.000Z,30.8
2024-01-30T21:44:26.000Z,26.6
2024-01-30T21:47:11.000Z,29.9
2024-01-30T21:50:44.000Z,28.8
2024-01-30T21:54:17.000Z,30.3
2024-01-30T21:57:50.000Z,30.3
2024-01-30T22:01:23.000Z,39.7
2024-01-30T22:04:56.000Z,34.9
2024-01-30T22:08:28.000Z,39.1
2024-01-30T22:12:01.000Z,37
2024-01-30T22:15:34.000Z,40.2
2024-01-30T22:19:07.000Z,42.2
2024-01-30T22:22:40.000Z,35.1
2024-01-30T22:25:25.000Z,34.9
2024-01-30T22:28:58.000Z,34.1
2024-01-30T22:32:31.000Z,32.9
2024-01-30T22:36:04.000Z,33.7
2024-01-30T22:39:37.000Z,36.1
2024-01-30T22:43:10.000Z,37.2
2024-01-30T22:46:43.000Z,37.8
2024-01-30T22:50:16.000Z,36.2
2024-01-30T22:53:49.000Z,31.6
2024-01-30T22:57:22.000Z,30.9
2024-01-30T23:00:55.000Z,30.7
2024-01-30T23:03:41.000Z,33.1
2024-01-30T23:07:14.000Z,30
2024-01-30T23:10:47.000Z,28.5
2024-01-30T23:14:20.000Z,27.1
2024-01-30T23:17:52.000Z,25.3
2024-01-30T23:21:25.000Z,28.6
2024-01-30T23:24:58.000Z,39.7
2024-01-30T23:28:31.000Z,34
2024-01-30T23:32:04.000Z,28.8
2024-01-30T23:35:43.000Z,23.3
2024-01-30T23:39:16.000Z,21.1
2024-01-30T23:42:01.000Z,24.9
2024-01-30T23:45:34.000Z,24.7
2024-01-30T23:49:06.000Z,21.4
2024-01-30T23:52:39.000Z,25
2024-01-30T23:56:12.000Z,20.7
2024-01-30T23:59:45.000Z,21.5
